Furacão DANIELLE 2010: trajetória, intensidade e histórico
3/09/2010, 00:00:00
21/08/2010, 12:00:00 – 3/09/2010, 00:00:00
Trajetória histórica
Acompanhe a evolução e o deslocamento de Furacão DANIELLE em 2010, com a trajetória completa registrada, ventos máximos sustentados de 115 nós, pressão central mínima e cronologia detalhada.
| Data | Hora | Tipo | Ventokm/h | PressãohPa |
|---|---|---|---|---|
| 03/09 | 00:00 | EXCiclone extratropical | 55 | 998 |
| 02/09 | 21:00 | EXCiclone extratropical | 60 | 998 |
| 02/09 | 18:00 | EXCiclone extratropical | 65 | 998 |
| 02/09 | 15:00 | EXCiclone extratropical | 65 | 997 |
| 02/09 | 12:00 | EXCiclone extratropical | 65 | 996 |
| 02/09 | 09:00 | EXCiclone extratropical | 70 | 996 |
| 02/09 | 06:00 | EXCiclone extratropical | 75 | 995 |
| 02/09 | 03:00 | EXCiclone extratropical | 75 | 995 |
| 02/09 | 00:00 | EXCiclone extratropical | 75 | 994 |
| 01/09 | 21:00 | EXCiclone extratropical | 75 | 993 |
| 01/09 | 18:00 | EXCiclone extratropical | 75 | 992 |
| 01/09 | 15:00 | EXCiclone extratropical | 75 | 992 |
| 01/09 | 12:00 | EXCiclone extratropical | 75 | 991 |
| 01/09 | 09:00 | EXCiclone extratropical | 75 | 991 |
| 01/09 | 06:00 | EXCiclone extratropical | 75 | 990 |
| 01/09 | 03:00 | EXCiclone extratropical | 80 | 989 |
| 01/09 | 00:00 | EXCiclone extratropical | 85 | 988 |
| 31/08 | 21:00 | EXCiclone extratropical | 90 | 988 |
| 31/08 | 18:00 | EXCiclone extratropical | 95 | 987 |
| 31/08 | 15:00 | RBaixa remanescente | 100 | 986 |
| 31/08 | 12:00 | RBaixa remanescente | 100 | 985 |
| 31/08 | 09:00 | RBaixa remanescente | 100 | 983 |
| 31/08 | 06:00 | RBaixa remanescente | 100 | 981 |
| 31/08 | 03:00 | RBaixa remanescente | 105 | 979 |
| 31/08 | 00:00 | RBaixa remanescente | 110 | 976 |
| 30/08 | 21:00 | TSTempestade tropical | 110 | 975 |
| 30/08 | 18:00 | TSTempestade tropical | 110 | 973 |
| 30/08 | 15:00 | TSTempestade tropical | 115 | 972 |
| 30/08 | 12:00 | HFuracão | 120 | 970 |
| 30/08 | 09:00 | HFuracão | 120 | 970 |
| 30/08 | 06:00 | HFuracão | 120 | 970 |
| 30/08 | 03:00 | HFuracão | 125 | 970 |
| 30/08 | 00:00 | HFuracão | 130 | 969 |
| 29/08 | 21:00 | HFuracão | 135 | 969 |
| 29/08 | 18:00 | HFuracão | 140 | 968 |
| 29/08 | 15:00 | HFuracão | 140 | 967 |
| 29/08 | 12:00 | HFuracão | 140 | 966 |
| 29/08 | 09:00 | HFuracão | 145 | 965 |
| 29/08 | 06:00 | HFuracão | 150 | 964 |
| 29/08 | 03:00 | HFuracão | 155 | 961 |
| 29/08 | 00:00 | HFuracão | 155 | 958 |
| 28/08 | 21:00 | HFuracão | 165 | 957 |
| 28/08 | 18:00 | HFuracão | 165 | 955 |
| 28/08 | 15:00 | HFuracão | 170 | 954 |
| 28/08 | 12:00 | HFuracão | 175 | 952 |
| 28/08 | 09:00 | HFuracão | 175 | 951 |
| 28/08 | 06:00 | HFuracão | 175 | 950 |
| 28/08 | 03:00 | HFuracão | 185 | 948 |
| 28/08 | 00:00 | MHFuracão de grande intensidade | 195 | 946 |
| 27/08 | 21:00 | HFuracão | 205 | 944 |
| 27/08 | 18:00 | MHFuracão de grande intensidade | 215 | 942 |
| 27/08 | 15:00 | HFuracão | 210 | 945 |
| 27/08 | 12:00 | MHFuracão de grande intensidade | 205 | 948 |
| 27/08 | 09:00 | HFuracão | 205 | 951 |
| 27/08 | 06:00 | MHFuracão de grande intensidade | 205 | 953 |
| 27/08 | 03:00 | HFuracão | 190 | 960 |
| 27/08 | 00:00 | HFuracão | 175 | 966 |
| 26/08 | 21:00 | HFuracão | 170 | 968 |
| 26/08 | 18:00 | HFuracão | 165 | 970 |
| 26/08 | 15:00 | HFuracão | 165 | 972 |
| 26/08 | 12:00 | HFuracão | 155 | 973 |
| 26/08 | 09:00 | HFuracão | 155 | 973 |
| 26/08 | 06:00 | HFuracão | 155 | 973 |
| 26/08 | 03:00 | HFuracão | 155 | 975 |
| 26/08 | 00:00 | HFuracão | 150 | 977 |
| 25/08 | 21:00 | HFuracão | 145 | 979 |
| 25/08 | 18:00 | HFuracão | 140 | 980 |
| 25/08 | 15:00 | HFuracão | 135 | 982 |
| 25/08 | 12:00 | HFuracão | 130 | 984 |
| 25/08 | 09:00 | HFuracão | 130 | 984 |
| 25/08 | 06:00 | HFuracão | 130 | 984 |
| 25/08 | 03:00 | HFuracão | 130 | 984 |
| 25/08 | 00:00 | HFuracão | 130 | 984 |
| 24/08 | 21:00 | HFuracão | 125 | 986 |
| 24/08 | 18:00 | HFuracão | 120 | 987 |
| 24/08 | 15:00 | HFuracão | 125 | 986 |
| 24/08 | 12:00 | HFuracão | 130 | 984 |
| 24/08 | 09:00 | HFuracão | 140 | 981 |
| 24/08 | 06:00 | HFuracão | 150 | 977 |
| 24/08 | 03:00 | HFuracão | 145 | 980 |
| 24/08 | 00:00 | HFuracão | 140 | 982 |
| 23/08 | 21:00 | HFuracão | 130 | 985 |
| 23/08 | 18:00 | HFuracão | 120 | 987 |
| 23/08 | 15:00 | TSTempestade tropical | 110 | 991 |
| 23/08 | 12:00 | TSTempestade tropical | 100 | 994 |
| 23/08 | 09:00 | TSTempestade tropical | 100 | 996 |
| 23/08 | 06:00 | TSTempestade tropical | 95 | 997 |
| 23/08 | 03:00 | TSTempestade tropical | 90 | 999 |
| 23/08 | 00:00 | TSTempestade tropical | 85 | 1000 |
| 22/08 | 21:00 | TSTempestade tropical | 75 | 1002 |
| 22/08 | 18:00 | TSTempestade tropical | 65 | 1004 |
| 22/08 | 15:00 | TSTempestade tropical | 65 | 1005 |
| 22/08 | 12:00 | TSTempestade tropical | 65 | 1005 |
| 22/08 | 09:00 | TSTempestade tropical | 65 | 1005 |
| 22/08 | 06:00 | TSTempestade tropical | 65 | 1005 |
| 22/08 | 03:00 | TDDepressão tropical | 60 | 1006 |
| 22/08 | 00:00 | TDDepressão tropical | 55 | 1007 |
| 21/08 | 21:00 | TDDepressão tropical | 50 | 1008 |
| 21/08 | 18:00 | TDDepressão tropical | 45 | 1008 |
| 21/08 | 15:00 | RBaixa remanescente | 45 | 1009 |
| 21/08 | 12:00 | RBaixa remanescente | 45 | 1009 |
Cronologia de localização
101 Registos de localizaçãoTambém pode encontrar estas ferramentas úteis
A localização, a extensão e o estado de cada evento podem ser atualizados em momentos diferentes consoante a fonte. Confirme decisões importantes junto das autoridades oficiais de emergência.
Os registos de eventos provêm da NASA EONET e são complementados por registos de deslizamentos de terra do USGS FDSN. As análises e previsões de tempestades podem utilizar a NOAA NHC ou o JTWC, com registos históricos ATCF da UCAR/NCAR quando disponíveis. As imagens de satélite provêm da NASA Worldview/GIBS (GOES e Himawari) ou da EUMETSAT Meteosat, consoante a cobertura do mapa.
Fontes: NASA EONET · USGS · NOAA NHC · JTWC · UCAR/NCAR ATCF · NASA Worldview/GIBS · EUMETSAT Meteosat · OpenStreetMap contributors